sensor_id;sensor_type;location;lat;lon;timestamp;P1;durP1;ratioP1;P2;durP2;ratioP2
25531;SDS011;13429;48.816;9.118;2022-09-13T00:00:08;2.90;;;1.40;;
25531;SDS011;13429;48.816;9.118;2022-09-13T00:02:34;3.17;;;1.42;;
25531;SDS011;13429;48.816;9.118;2022-09-13T00:05:00;2.08;;;1.55;;
25531;SDS011;13429;48.816;9.118;2022-09-13T00:07:26;1.83;;;1.30;;
25531;SDS011;13429;48.816;9.118;2022-09-13T00:09:52;2.08;;;1.38;;
25531;SDS011;13429;48.816;9.118;2022-09-13T00:12:18;2.20;;;1.25;;
25531;SDS011;13429;48.816;9.118;2022-09-13T00:14:44;3.42;;;1.10;;
25531;SDS011;13429;48.816;9.118;2022-09-13T00:17:10;1.10;;;1.00;;
25531;SDS011;13429;48.816;9.118;2022-09-13T00:19:36;3.58;;;1.10;;
25531;SDS011;13429;48.816;9.118;2022-09-13T00:22:02;1.85;;;1.23;;
25531;SDS011;13429;48.816;9.118;2022-09-13T00:24:30;1.35;;;1.20;;
25531;SDS011;13429;48.816;9.118;2022-09-13T00:26:57;1.48;;;1.25;;
25531;SDS011;13429;48.816;9.118;2022-09-13T00:29:24;2.58;;;1.63;;
25531;SDS011;13429;48.816;9.118;2022-09-13T00:31:50;4.70;;;1.38;;
25531;SDS011;13429;48.816;9.118;2022-09-13T00:34:16;2.83;;;1.30;;
25531;SDS011;13429;48.816;9.118;2022-09-13T00:36:42;1.75;;;1.25;;
25531;SDS011;13429;48.816;9.118;2022-09-13T00:39:08;2.63;;;1.25;;
25531;SDS011;13429;48.816;9.118;2022-09-13T00:41:35;1.73;;;1.38;;
25531;SDS011;13429;48.816;9.118;2022-09-13T00:44:02;2.53;;;1.30;;
25531;SDS011;13429;48.816;9.118;2022-09-13T00:46:41;1.80;;;1.17;;
25531;SDS011;13429;48.816;9.118;2022-09-13T00:49:19;1.77;;;1.30;;
25531;SDS011;13429;48.816;9.118;2022-09-13T00:52:04;4.10;;;1.70;;
25531;SDS011;13429;48.816;9.118;2022-09-13T00:54:37;7.65;;;1.98;;
25531;SDS011;13429;48.816;9.118;2022-09-13T00:57:04;2.20;;;1.40;;
25531;SDS011;13429;48.816;9.118;2022-09-13T00:59:35;2.55;;;1.38;;
25531;SDS011;13429;48.816;9.118;2022-09-13T01:02:02;2.10;;;1.17;;
25531;SDS011;13429;48.816;9.118;2022-09-13T01:04:30;5.57;;;1.83;;
25531;SDS011;13429;48.816;9.118;2022-09-13T01:06:58;2.85;;;1.42;;
25531;SDS011;13429;48.816;9.118;2022-09-13T01:09:25;2.63;;;1.80;;
25531;SDS011;13429;48.816;9.118;2022-09-13T01:11:52;2.58;;;1.60;;
25531;SDS011;13429;48.816;9.118;2022-09-13T01:14:28;4.07;;;2.05;;
25531;SDS011;13429;48.816;9.118;2022-09-13T01:16:54;3.50;;;1.80;;
25531;SDS011;13429;48.816;9.118;2022-09-13T01:19:20;3.75;;;1.65;;
25531;SDS011;13429;48.816;9.118;2022-09-13T01:24:46;4.25;;;1.85;;
25531;SDS011;13429;48.816;9.118;2022-09-13T01:30:10;2.50;;;1.60;;
25531;SDS011;13429;48.816;9.118;2022-09-13T01:32:58;2.38;;;1.67;;
25531;SDS011;13429;48.816;9.118;2022-09-13T01:43:06;3.67;;;1.50;;
25531;SDS011;13429;48.816;9.118;2022-09-13T01:48:20;3.08;;;1.63;;
25531;SDS011;13429;48.816;9.118;2022-09-13T01:51:05;2.30;;;1.55;;
25531;SDS011;13429;48.816;9.118;2022-09-13T01:53:39;10.88;;;1.80;;
25531;SDS011;13429;48.816;9.118;2022-09-13T01:56:19;3.15;;;1.50;;
25531;SDS011;13429;48.816;9.118;2022-09-13T01:58:48;3.45;;;1.73;;
25531;SDS011;13429;48.816;9.118;2022-09-13T02:01:19;5.45;;;1.60;;
25531;SDS011;13429;48.816;9.118;2022-09-13T02:03:55;2.70;;;1.38;;
25531;SDS011;13429;48.816;9.118;2022-09-13T02:06:24;3.25;;;1.45;;
25531;SDS011;13429;48.816;9.118;2022-09-13T02:08:53;5.40;;;1.92;;
25531;SDS011;13429;48.816;9.118;2022-09-13T02:11:20;3.45;;;1.55;;
25531;SDS011;13429;48.816;9.118;2022-09-13T02:13:54;2.63;;;1.77;;
25531;SDS011;13429;48.816;9.118;2022-09-13T02:16:28;2.25;;;1.45;;
25531;SDS011;13429;48.816;9.118;2022-09-13T02:19:02;1.90;;;1.38;;
25531;SDS011;13429;48.816;9.118;2022-09-13T02:21:30;1.90;;;1.60;;
25531;SDS011;13429;48.816;9.118;2022-09-13T02:24:18;3.53;;;1.80;;
25531;SDS011;13429;48.816;9.118;2022-09-13T02:26:45;4.15;;;1.42;;
25531;SDS011;13429;48.816;9.118;2022-09-13T02:29:14;2.92;;;1.55;;
25531;SDS011;13429;48.816;9.118;2022-09-13T02:31:43;2.55;;;1.42;;
25531;SDS011;13429;48.816;9.118;2022-09-13T02:34:14;2.53;;;1.52;;
25531;SDS011;13429;48.816;9.118;2022-09-13T02:36:42;3.40;;;1.40;;
25531;SDS011;13429;48.816;9.118;2022-09-13T02:39:14;2.80;;;1.48;;
25531;SDS011;13429;48.816;9.118;2022-09-13T02:44:09;4.85;;;1.67;;
25531;SDS011;13429;48.816;9.118;2022-09-13T02:49:24;3.60;;;1.83;;
25531;SDS011;13429;48.816;9.118;2022-09-13T02:51:54;2.78;;;1.27;;
25531;SDS011;13429;48.816;9.118;2022-09-13T02:59:16;2.75;;;2.00;;
25531;SDS011;13429;48.816;9.118;2022-09-13T03:01:48;3.53;;;1.80;;
25531;SDS011;13429;48.816;9.118;2022-09-13T03:04:15;3.03;;;1.48;;
25531;SDS011;13429;48.816;9.118;2022-09-13T03:06:41;2.28;;;1.58;;
25531;SDS011;13429;48.816;9.118;2022-09-13T03:09:08;3.03;;;1.77;;
25531;SDS011;13429;48.816;9.118;2022-09-13T03:25:06;3.65;;;1.80;;
25531;SDS011;13429;48.816;9.118;2022-09-13T03:27:36;2.53;;;1.98;;
25531;SDS011;13429;48.816;9.118;2022-09-13T03:35:21;3.40;;;1.73;;
25531;SDS011;13429;48.816;9.118;2022-09-13T03:37:54;2.63;;;1.55;;
25531;SDS011;13429;48.816;9.118;2022-09-13T03:40:27;2.58;;;1.90;;
25531;SDS011;13429;48.816;9.118;2022-09-13T03:43:19;4.45;;;2.05;;
25531;SDS011;13429;48.816;9.118;2022-09-13T03:45:50;2.65;;;1.80;;
25531;SDS011;13429;48.816;9.118;2022-09-13T03:48:16;2.78;;;1.50;;
25531;SDS011;13429;48.816;9.118;2022-09-13T03:50:46;4.22;;;1.52;;
25531;SDS011;13429;48.816;9.118;2022-09-13T03:53:14;3.33;;;1.83;;
25531;SDS011;13429;48.816;9.118;2022-09-13T03:55:43;3.33;;;1.88;;
25531;SDS011;13429;48.816;9.118;2022-09-13T03:58:13;2.45;;;1.70;;
25531;SDS011;13429;48.816;9.118;2022-09-13T04:00:39;2.63;;;1.60;;
25531;SDS011;13429;48.816;9.118;2022-09-13T04:03:05;3.13;;;1.80;;
25531;SDS011;13429;48.816;9.118;2022-09-13T04:05:31;3.22;;;2.03;;
25531;SDS011;13429;48.816;9.118;2022-09-13T04:07:58;4.38;;;2.08;;
25531;SDS011;13429;48.816;9.118;2022-09-13T04:10:26;2.95;;;2.33;;
25531;SDS011;13429;48.816;9.118;2022-09-13T04:12:52;5.15;;;2.50;;
25531;SDS011;13429;48.816;9.118;2022-09-13T04:15:19;3.38;;;2.13;;
25531;SDS011;13429;48.816;9.118;2022-09-13T04:17:45;3.63;;;2.00;;
25531;SDS011;13429;48.816;9.118;2022-09-13T04:20:12;2.90;;;2.00;;
25531;SDS011;13429;48.816;9.118;2022-09-13T04:22:38;4.43;;;1.92;;
25531;SDS011;13429;48.816;9.118;2022-09-13T04:25:04;3.40;;;1.90;;
25531;SDS011;13429;48.816;9.118;2022-09-13T04:27:31;2.53;;;1.63;;
25531;SDS011;13429;48.816;9.118;2022-09-13T04:29:57;3.13;;;1.90;;
25531;SDS011;13429;48.816;9.118;2022-09-13T04:32:23;1.92;;;1.67;;
25531;SDS011;13429;48.816;9.118;2022-09-13T04:34:49;2.95;;;2.10;;
25531;SDS011;13429;48.816;9.118;2022-09-13T04:37:15;4.65;;;2.45;;
25531;SDS011;13429;48.816;9.118;2022-09-13T04:39:41;4.68;;;2.55;;
25531;SDS011;13429;48.816;9.118;2022-09-13T04:42:07;4.88;;;3.08;;
25531;SDS011;13429;48.816;9.118;2022-09-13T04:44:35;4.38;;;2.80;;
25531;SDS011;13429;48.816;9.118;2022-09-13T04:47:01;2.92;;;2.20;;
25531;SDS011;13429;48.816;9.118;2022-09-13T04:49:27;3.88;;;2.55;;
25531;SDS011;13429;48.816;9.118;2022-09-13T04:51:53;4.53;;;2.47;;
25531;SDS011;13429;48.816;9.118;2022-09-13T04:54:19;3.60;;;2.28;;
25531;SDS011;13429;48.816;9.118;2022-09-13T04:56:46;3.00;;;2.20;;
25531;SDS011;13429;48.816;9.118;2022-09-13T04:59:13;3.35;;;2.13;;
25531;SDS011;13429;48.816;9.118;2022-09-13T05:01:41;4.18;;;2.17;;
25531;SDS011;13429;48.816;9.118;2022-09-13T05:04:07;2.85;;;2.30;;
25531;SDS011;13429;48.816;9.118;2022-09-13T05:06:33;3.85;;;2.70;;
25531;SDS011;13429;48.816;9.118;2022-09-13T05:08:59;4.30;;;2.35;;
25531;SDS011;13429;48.816;9.118;2022-09-13T05:11:26;2.95;;;2.20;;
25531;SDS011;13429;48.816;9.118;2022-09-13T05:13:53;4.15;;;2.38;;
25531;SDS011;13429;48.816;9.118;2022-09-13T05:16:20;3.22;;;2.13;;
25531;SDS011;13429;48.816;9.118;2022-09-13T05:18:46;5.20;;;2.35;;
25531;SDS011;13429;48.816;9.118;2022-09-13T05:21:12;3.58;;;2.80;;
25531;SDS011;13429;48.816;9.118;2022-09-13T05:23:38;6.97;;;3.53;;
25531;SDS011;13429;48.816;9.118;2022-09-13T05:26:05;4.72;;;2.20;;
25531;SDS011;13429;48.816;9.118;2022-09-13T05:28:31;3.10;;;2.30;;
25531;SDS011;13429;48.816;9.118;2022-09-13T05:31:03;3.42;;;2.05;;
25531;SDS011;13429;48.816;9.118;2022-09-13T05:33:31;3.30;;;2.33;;
25531;SDS011;13429;48.816;9.118;2022-09-13T05:35:57;4.00;;;2.67;;
25531;SDS011;13429;48.816;9.118;2022-09-13T05:38:23;5.53;;;2.40;;
25531;SDS011;13429;48.816;9.118;2022-09-13T05:40:56;4.28;;;2.58;;
25531;SDS011;13429;48.816;9.118;2022-09-13T05:43:23;4.82;;;2.20;;
25531;SDS011;13429;48.816;9.118;2022-09-13T05:45:49;5.03;;;2.30;;
25531;SDS011;13429;48.816;9.118;2022-09-13T05:48:15;2.95;;;2.10;;
25531;SDS011;13429;48.816;9.118;2022-09-13T05:50:42;3.42;;;2.20;;
25531;SDS011;13429;48.816;9.118;2022-09-13T05:53:08;3.17;;;2.08;;
25531;SDS011;13429;48.816;9.118;2022-09-13T05:55:34;3.08;;;2.13;;
25531;SDS011;13429;48.816;9.118;2022-09-13T05:58:00;3.20;;;2.38;;
25531;SDS011;13429;48.816;9.118;2022-09-13T06:00:27;5.35;;;2.80;;
25531;SDS011;13429;48.816;9.118;2022-09-13T06:02:53;4.72;;;2.72;;
25531;SDS011;13429;48.816;9.118;2022-09-13T06:05:19;5.38;;;3.20;;
25531;SDS011;13429;48.816;9.118;2022-09-13T06:07:44;6.40;;;3.22;;
25531;SDS011;13429;48.816;9.118;2022-09-13T06:10:11;5.63;;;2.90;;
25531;SDS011;13429;48.816;9.118;2022-09-13T06:12:37;4.05;;;2.65;;
25531;SDS011;13429;48.816;9.118;2022-09-13T06:15:03;6.55;;;3.13;;
25531;SDS011;13429;48.816;9.118;2022-09-13T06:17:29;6.20;;;2.92;;
25531;SDS011;13429;48.816;9.118;2022-09-13T06:19:55;4.78;;;2.33;;
25531;SDS011;13429;48.816;9.118;2022-09-13T06:22:21;6.20;;;2.90;;
25531;SDS011;13429;48.816;9.118;2022-09-13T06:24:47;3.78;;;2.53;;
25531;SDS011;13429;48.816;9.118;2022-09-13T06:27:13;4.20;;;2.58;;
25531;SDS011;13429;48.816;9.118;2022-09-13T06:29:39;7.70;;;2.70;;
25531;SDS011;13429;48.816;9.118;2022-09-13T06:32:05;4.15;;;2.58;;
25531;SDS011;13429;48.816;9.118;2022-09-13T06:34:31;4.50;;;2.70;;
25531;SDS011;13429;48.816;9.118;2022-09-13T06:36:57;3.63;;;2.40;;
25531;SDS011;13429;48.816;9.118;2022-09-13T06:39:23;7.97;;;2.70;;
25531;SDS011;13429;48.816;9.118;2022-09-13T06:41:49;5.28;;;2.50;;
25531;SDS011;13429;48.816;9.118;2022-09-13T06:44:15;6.40;;;3.08;;
25531;SDS011;13429;48.816;9.118;2022-09-13T06:46:41;10.68;;;3.78;;
25531;SDS011;13429;48.816;9.118;2022-09-13T06:49:08;6.40;;;3.25;;
25531;SDS011;13429;48.816;9.118;2022-09-13T06:51:34;7.35;;;3.53;;
25531;SDS011;13429;48.816;9.118;2022-09-13T06:54:01;5.00;;;2.95;;
25531;SDS011;13429;48.816;9.118;2022-09-13T06:56:32;6.25;;;2.88;;
25531;SDS011;13429;48.816;9.118;2022-09-13T06:58:59;5.70;;;3.50;;
25531;SDS011;13429;48.816;9.118;2022-09-13T07:01:26;4.60;;;2.83;;
25531;SDS011;13429;48.816;9.118;2022-09-13T07:04:03;6.57;;;3.22;;
25531;SDS011;13429;48.816;9.118;2022-09-13T07:06:30;8.45;;;3.45;;
25531;SDS011;13429;48.816;9.118;2022-09-13T07:08:58;5.63;;;2.70;;
25531;SDS011;13429;48.816;9.118;2022-09-13T07:11:25;5.80;;;2.92;;
25531;SDS011;13429;48.816;9.118;2022-09-13T07:13:52;8.82;;;3.15;;
25531;SDS011;13429;48.816;9.118;2022-09-13T07:16:19;5.85;;;2.97;;
25531;SDS011;13429;48.816;9.118;2022-09-13T07:18:52;4.30;;;2.47;;
25531;SDS011;13429;48.816;9.118;2022-09-13T07:21:18;5.18;;;3.13;;
25531;SDS011;13429;48.816;9.118;2022-09-13T07:23:45;4.53;;;2.80;;
25531;SDS011;13429;48.816;9.118;2022-09-13T07:26:11;6.10;;;2.67;;
25531;SDS011;13429;48.816;9.118;2022-09-13T07:28:37;4.90;;;2.92;;
25531;SDS011;13429;48.816;9.118;2022-09-13T07:31:13;6.28;;;2.63;;
25531;SDS011;13429;48.816;9.118;2022-09-13T07:33:40;4.78;;;2.45;;
25531;SDS011;13429;48.816;9.118;2022-09-13T07:36:07;6.78;;;2.75;;
25531;SDS011;13429;48.816;9.118;2022-09-13T07:38:37;4.28;;;2.67;;
25531;SDS011;13429;48.816;9.118;2022-09-13T07:41:04;7.95;;;3.00;;
25531;SDS011;13429;48.816;9.118;2022-09-13T07:43:33;5.22;;;2.50;;
25531;SDS011;13429;48.816;9.118;2022-09-13T07:46:00;3.85;;;2.75;;
25531;SDS011;13429;48.816;9.118;2022-09-13T07:48:27;5.05;;;2.50;;
25531;SDS011;13429;48.816;9.118;2022-09-13T07:51:06;5.32;;;2.40;;
25531;SDS011;13429;48.816;9.118;2022-09-13T07:53:33;5.60;;;2.50;;
25531;SDS011;13429;48.816;9.118;2022-09-13T07:56:00;6.80;;;2.30;;
25531;SDS011;13429;48.816;9.118;2022-09-13T07:58:27;5.38;;;2.10;;
25531;SDS011;13429;48.816;9.118;2022-09-13T08:00:53;3.35;;;2.00;;
25531;SDS011;13429;48.816;9.118;2022-09-13T08:03:19;3.67;;;2.22;;
25531;SDS011;13429;48.816;9.118;2022-09-13T08:05:45;3.80;;;2.10;;
25531;SDS011;13429;48.816;9.118;2022-09-13T08:08:11;4.32;;;2.03;;
25531;SDS011;13429;48.816;9.118;2022-09-13T08:10:37;6.45;;;2.35;;
25531;SDS011;13429;48.816;9.118;2022-09-13T08:13:03;3.13;;;1.85;;
25531;SDS011;13429;48.816;9.118;2022-09-13T08:15:29;14.85;;;2.38;;
25531;SDS011;13429;48.816;9.118;2022-09-13T08:17:55;4.82;;;2.10;;
25531;SDS011;13429;48.816;9.118;2022-09-13T08:20:21;3.33;;;1.83;;
25531;SDS011;13429;48.816;9.118;2022-09-13T08:22:47;4.18;;;2.00;;
25531;SDS011;13429;48.816;9.118;2022-09-13T08:25:13;5.53;;;2.35;;
25531;SDS011;13429;48.816;9.118;2022-09-13T08:27:39;3.83;;;2.33;;
25531;SDS011;13429;48.816;9.118;2022-09-13T08:30:05;4.50;;;2.30;;
25531;SDS011;13429;48.816;9.118;2022-09-13T08:32:31;4.25;;;2.22;;
25531;SDS011;13429;48.816;9.118;2022-09-13T08:34:57;6.65;;;2.20;;
25531;SDS011;13429;48.816;9.118;2022-09-13T08:37:23;8.55;;;2.00;;
25531;SDS011;13429;48.816;9.118;2022-09-13T08:39:49;6.90;;;2.50;;
25531;SDS011;13429;48.816;9.118;2022-09-13T08:42:21;9.73;;;2.40;;
25531;SDS011;13429;48.816;9.118;2022-09-13T08:44:49;5.22;;;2.10;;
25531;SDS011;13429;48.816;9.118;2022-09-13T08:50:09;5.05;;;2.33;;
25531;SDS011;13429;48.816;9.118;2022-09-13T08:55:43;4.13;;;2.17;;
25531;SDS011;13429;48.816;9.118;2022-09-13T09:00:43;4.35;;;1.90;;
25531;SDS011;13429;48.816;9.118;2022-09-13T09:05:45;3.97;;;1.88;;
25531;SDS011;13429;48.816;9.118;2022-09-13T09:08:14;6.53;;;2.50;;
25531;SDS011;13429;48.816;9.118;2022-09-13T09:10:46;3.40;;;1.48;;
25531;SDS011;13429;48.816;9.118;2022-09-13T09:15:40;4.57;;;1.95;;
25531;SDS011;13429;48.816;9.118;2022-09-13T09:18:11;4.05;;;1.90;;
25531;SDS011;13429;48.816;9.118;2022-09-13T09:23:06;5.65;;;1.75;;
25531;SDS011;13429;48.816;9.118;2022-09-13T09:25:33;13.05;;;2.35;;
25531;SDS011;13429;48.816;9.118;2022-09-13T09:27:59;6.68;;;1.85;;
25531;SDS011;13429;48.816;9.118;2022-09-13T09:30:35;4.38;;;1.65;;
25531;SDS011;13429;48.816;9.118;2022-09-13T09:33:17;3.78;;;1.80;;
25531;SDS011;13429;48.816;9.118;2022-09-13T09:40:57;3.80;;;1.77;;
25531;SDS011;13429;48.816;9.118;2022-09-13T09:43:25;8.57;;;1.73;;
25531;SDS011;13429;48.816;9.118;2022-09-13T09:45:52;5.15;;;1.70;;
25531;SDS011;13429;48.816;9.118;2022-09-13T09:48:21;7.55;;;2.13;;
25531;SDS011;13429;48.816;9.118;2022-09-13T09:50:49;4.47;;;1.60;;
25531;SDS011;13429;48.816;9.118;2022-09-13T09:55:50;5.82;;;2.17;;
25531;SDS011;13429;48.816;9.118;2022-09-13T09:58:17;7.95;;;2.08;;
25531;SDS011;13429;48.816;9.118;2022-09-13T10:01:00;7.25;;;1.80;;
25531;SDS011;13429;48.816;9.118;2022-09-13T10:03:27;4.30;;;1.95;;
25531;SDS011;13429;48.816;9.118;2022-09-13T10:06:07;2.90;;;1.50;;
25531;SDS011;13429;48.816;9.118;2022-09-13T10:08:34;3.93;;;2.10;;
25531;SDS011;13429;48.816;9.118;2022-09-13T10:11:01;4.18;;;1.70;;
25531;SDS011;13429;48.816;9.118;2022-09-13T10:13:28;3.70;;;1.60;;
25531;SDS011;13429;48.816;9.118;2022-09-13T10:18:22;6.93;;;1.88;;
25531;SDS011;13429;48.816;9.118;2022-09-13T10:21:06;2.25;;;1.50;;
25531;SDS011;13429;48.816;9.118;2022-09-13T10:23:33;5.95;;;1.98;;
25531;SDS011;13429;48.816;9.118;2022-09-13T10:28:27;7.00;;;1.50;;
25531;SDS011;13429;48.816;9.118;2022-09-13T10:30:55;3.45;;;1.80;;
25531;SDS011;13429;48.816;9.118;2022-09-13T10:33:26;2.65;;;1.58;;
25531;SDS011;13429;48.816;9.118;2022-09-13T10:35:55;4.53;;;1.45;;
25531;SDS011;13429;48.816;9.118;2022-09-13T10:38:27;3.33;;;1.38;;
25531;SDS011;13429;48.816;9.118;2022-09-13T10:40:54;5.28;;;1.33;;
25531;SDS011;13429;48.816;9.118;2022-09-13T10:43:21;3.25;;;1.10;;
25531;SDS011;13429;48.816;9.118;2022-09-13T10:45:48;6.15;;;1.60;;
25531;SDS011;13429;48.816;9.118;2022-09-13T10:48:16;1.83;;;1.08;;
25531;SDS011;13429;48.816;9.118;2022-09-13T10:53:34;1.45;;;0.80;;
25531;SDS011;13429;48.816;9.118;2022-09-13T10:56:00;1.38;;;0.77;;
25531;SDS011;13429;48.816;9.118;2022-09-13T10:58:27;1.70;;;0.90;;
25531;SDS011;13429;48.816;9.118;2022-09-13T11:06:06;8.73;;;1.33;;
25531;SDS011;13429;48.816;9.118;2022-09-13T11:11:29;2.45;;;1.33;;
25531;SDS011;13429;48.816;9.118;2022-09-13T11:14:05;2.75;;;0.90;;
25531;SDS011;13429;48.816;9.118;2022-09-13T11:16:57;2.80;;;1.17;;
25531;SDS011;13429;48.816;9.118;2022-09-13T11:24:26;1.42;;;0.80;;
25531;SDS011;13429;48.816;9.118;2022-09-13T11:26:59;1.38;;;0.80;;
25531;SDS011;13429;48.816;9.118;2022-09-13T11:32:25;1.88;;;0.63;;
25531;SDS011;13429;48.816;9.118;2022-09-13T11:35:15;3.10;;;1.00;;
25531;SDS011;13429;48.816;9.118;2022-09-13T11:37:50;3.13;;;1.05;;
25531;SDS011;13429;48.816;9.118;2022-09-13T11:48:31;0.70;;;0.60;;
25531;SDS011;13429;48.816;9.118;2022-09-13T11:56:10;2.53;;;1.00;;
25531;SDS011;13429;48.816;9.118;2022-09-13T11:58:44;6.13;;;0.90;;
25531;SDS011;13429;48.816;9.118;2022-09-13T12:01:12;1.73;;;0.95;;
25531;SDS011;13429;48.816;9.118;2022-09-13T12:06:20;5.40;;;0.95;;
25531;SDS011;13429;48.816;9.118;2022-09-13T12:08:52;2.40;;;0.73;;
25531;SDS011;13429;48.816;9.118;2022-09-13T12:13:53;2.63;;;0.75;;
25531;SDS011;13429;48.816;9.118;2022-09-13T12:16:30;2.88;;;0.85;;
25531;SDS011;13429;48.816;9.118;2022-09-13T12:18:58;1.63;;;0.77;;
25531;SDS011;13429;48.816;9.118;2022-09-13T12:21:29;3.90;;;1.20;;
25531;SDS011;13429;48.816;9.118;2022-09-13T12:26:27;1.65;;;0.90;;
25531;SDS011;13429;48.816;9.118;2022-09-13T12:28:58;3.97;;;0.80;;
25531;SDS011;13429;48.816;9.118;2022-09-13T12:31:27;1.92;;;0.70;;
25531;SDS011;13429;48.816;9.118;2022-09-13T12:33:53;3.13;;;0.98;;
25531;SDS011;13429;48.816;9.118;2022-09-13T12:44:33;2.33;;;0.70;;
25531;SDS011;13429;48.816;9.118;2022-09-13T12:47:18;2.38;;;0.90;;
25531;SDS011;13429;48.816;9.118;2022-09-13T12:49:56;4.15;;;0.98;;
25531;SDS011;13429;48.816;9.118;2022-09-13T13:02:21;1.38;;;0.70;;
25531;SDS011;13429;48.816;9.118;2022-09-13T13:04:52;0.98;;;0.50;;
25531;SDS011;13429;48.816;9.118;2022-09-13T13:07:20;0.93;;;0.55;;
25531;SDS011;13429;48.816;9.118;2022-09-13T13:09:48;8.15;;;0.90;;
25531;SDS011;13429;48.816;9.118;2022-09-13T13:12:30;3.25;;;0.70;;
25531;SDS011;13429;48.816;9.118;2022-09-13T13:14:58;1.70;;;0.60;;
25531;SDS011;13429;48.816;9.118;2022-09-13T13:20:43;1.38;;;0.70;;
25531;SDS011;13429;48.816;9.118;2022-09-13T13:33:55;1.30;;;0.80;;
25531;SDS011;13429;48.816;9.118;2022-09-13T13:36:24;1.33;;;0.88;;
25531;SDS011;13429;48.816;9.118;2022-09-13T13:38:52;3.20;;;0.85;;
25531;SDS011;13429;48.816;9.118;2022-09-13T13:44:01;2.38;;;0.60;;
25531;SDS011;13429;48.816;9.118;2022-09-13T14:02:36;2.72;;;0.90;;
25531;SDS011;13429;48.816;9.118;2022-09-13T14:08:09;2.83;;;0.93;;
25531;SDS011;13429;48.816;9.118;2022-09-13T14:10:27;0.77;;;0.40;;
25531;SDS011;13429;48.816;9.118;2022-09-13T14:13:15;1.35;;;0.50;;
25531;SDS011;13429;48.816;9.118;2022-09-13T14:21:18;0.82;;;0.35;;
25531;SDS011;13429;48.816;9.118;2022-09-13T14:23:45;2.38;;;0.73;;
25531;SDS011;13429;48.816;9.118;2022-09-13T14:26:11;0.98;;;0.45;;
25531;SDS011;13429;48.816;9.118;2022-09-13T14:28:37;2.80;;;0.50;;
25531;SDS011;13429;48.816;9.118;2022-09-13T14:31:04;0.90;;;0.43;;
25531;SDS011;13429;48.816;9.118;2022-09-13T14:33:34;1.75;;;0.85;;
25531;SDS011;13429;48.816;9.118;2022-09-13T14:38:28;1.98;;;0.45;;
25531;SDS011;13429;48.816;9.118;2022-09-13T14:41:13;3.70;;;0.95;;
25531;SDS011;13429;48.816;9.118;2022-09-13T14:43:41;4.18;;;0.70;;
25531;SDS011;13429;48.816;9.118;2022-09-13T14:48:47;10.35;;;0.75;;
25531;SDS011;13429;48.816;9.118;2022-09-13T14:51:17;3.50;;;0.50;;
25531;SDS011;13429;48.816;9.118;2022-09-13T14:53:45;2.15;;;0.63;;
25531;SDS011;13429;48.816;9.118;2022-09-13T14:59:15;0.80;;;0.50;;
25531;SDS011;13429;48.816;9.118;2022-09-13T15:01:43;0.80;;;0.60;;
25531;SDS011;13429;48.816;9.118;2022-09-13T15:04:09;3.17;;;0.70;;
25531;SDS011;13429;48.816;9.118;2022-09-13T15:06:36;2.53;;;0.68;;
25531;SDS011;13429;48.816;9.118;2022-09-13T15:11:59;1.10;;;0.55;;
25531;SDS011;13429;48.816;9.118;2022-09-13T15:16:53;3.88;;;0.60;;
25531;SDS011;13429;48.816;9.118;2022-09-13T15:21:48;1.67;;;0.60;;
25531;SDS011;13429;48.816;9.118;2022-09-13T15:24:23;0.73;;;0.40;;
25531;SDS011;13429;48.816;9.118;2022-09-13T15:29:37;2.78;;;0.45;;
25531;SDS011;13429;48.816;9.118;2022-09-13T15:32:04;1.45;;;0.57;;
25531;SDS011;13429;48.816;9.118;2022-09-13T15:34:30;0.95;;;0.38;;
25531;SDS011;13429;48.816;9.118;2022-09-13T15:39:25;1.48;;;0.47;;
25531;SDS011;13429;48.816;9.118;2022-09-13T15:44:21;1.60;;;0.68;;
25531;SDS011;13429;48.816;9.118;2022-09-13T15:46:51;2.20;;;0.50;;
25531;SDS011;13429;48.816;9.118;2022-09-13T15:49:24;2.97;;;0.53;;
25531;SDS011;13429;48.816;9.118;2022-09-13T15:52:00;0.82;;;0.50;;
25531;SDS011;13429;48.816;9.118;2022-09-13T15:54:31;4.75;;;0.60;;
25531;SDS011;13429;48.816;9.118;2022-09-13T15:56:57;0.88;;;0.45;;
25531;SDS011;13429;48.816;9.118;2022-09-13T15:59:23;1.83;;;0.40;;
25531;SDS011;13429;48.816;9.118;2022-09-13T16:01:50;1.08;;;0.50;;
25531;SDS011;13429;48.816;9.118;2022-09-13T16:04:16;0.82;;;0.50;;
25531;SDS011;13429;48.816;9.118;2022-09-13T16:06:43;1.40;;;0.73;;
25531;SDS011;13429;48.816;9.118;2022-09-13T16:09:19;1.05;;;0.50;;
25531;SDS011;13429;48.816;9.118;2022-09-13T16:11:45;1.38;;;0.60;;
25531;SDS011;13429;48.816;9.118;2022-09-13T16:14:12;0.70;;;0.38;;
25531;SDS011;13429;48.816;9.118;2022-09-13T16:16:38;0.70;;;0.40;;
25531;SDS011;13429;48.816;9.118;2022-09-13T16:19:04;1.23;;;0.60;;
25531;SDS011;13429;48.816;9.118;2022-09-13T16:21:30;0.73;;;0.30;;
25531;SDS011;13429;48.816;9.118;2022-09-13T16:23:56;1.55;;;0.55;;
25531;SDS011;13429;48.816;9.118;2022-09-13T16:26:23;1.38;;;0.50;;
25531;SDS011;13429;48.816;9.118;2022-09-13T16:28:49;0.70;;;0.35;;
25531;SDS011;13429;48.816;9.118;2022-09-13T16:31:15;2.15;;;0.40;;
25531;SDS011;13429;48.816;9.118;2022-09-13T16:33:43;1.30;;;0.50;;
25531;SDS011;13429;48.816;9.118;2022-09-13T16:36:10;0.80;;;0.50;;
25531;SDS011;13429;48.816;9.118;2022-09-13T16:38:37;2.35;;;0.50;;
25531;SDS011;13429;48.816;9.118;2022-09-13T16:41:03;0.90;;;0.60;;
25531;SDS011;13429;48.816;9.118;2022-09-13T16:43:30;1.55;;;0.77;;
25531;SDS011;13429;48.816;9.118;2022-09-13T16:45:57;1.15;;;0.43;;
25531;SDS011;13429;48.816;9.118;2022-09-13T16:48:23;2.00;;;0.70;;
25531;SDS011;13429;48.816;9.118;2022-09-13T16:50:49;1.73;;;0.85;;
25531;SDS011;13429;48.816;9.118;2022-09-13T16:53:16;2.67;;;0.80;;
25531;SDS011;13429;48.816;9.118;2022-09-13T16:55:42;1.13;;;0.60;;
25531;SDS011;13429;48.816;9.118;2022-09-13T16:58:09;1.00;;;0.50;;
25531;SDS011;13429;48.816;9.118;2022-09-13T17:00:35;2.60;;;0.93;;
25531;SDS011;13429;48.816;9.118;2022-09-13T17:03:01;1.65;;;0.73;;
25531;SDS011;13429;48.816;9.118;2022-09-13T17:05:28;1.80;;;0.80;;
25531;SDS011;13429;48.816;9.118;2022-09-13T17:07:54;1.85;;;0.95;;
25531;SDS011;13429;48.816;9.118;2022-09-13T17:10:20;1.45;;;0.80;;
25531;SDS011;13429;48.816;9.118;2022-09-13T17:12:46;2.45;;;0.90;;
25531;SDS011;13429;48.816;9.118;2022-09-13T17:15:12;2.58;;;1.10;;
25531;SDS011;13429;48.816;9.118;2022-09-13T17:17:38;4.43;;;1.67;;
25531;SDS011;13429;48.816;9.118;2022-09-13T17:20:06;3.20;;;1.58;;
25531;SDS011;13429;48.816;9.118;2022-09-13T17:22:33;2.28;;;1.35;;
25531;SDS011;13429;48.816;9.118;2022-09-13T17:25:00;5.53;;;2.03;;
25531;SDS011;13429;48.816;9.118;2022-09-13T17:27:26;2.75;;;1.45;;
25531;SDS011;13429;48.816;9.118;2022-09-13T17:29:52;4.65;;;2.13;;
25531;SDS011;13429;48.816;9.118;2022-09-13T17:32:18;2.22;;;1.40;;
25531;SDS011;13429;48.816;9.118;2022-09-13T17:34:44;3.78;;;1.65;;
25531;SDS011;13429;48.816;9.118;2022-09-13T17:37:10;2.58;;;1.58;;
25531;SDS011;13429;48.816;9.118;2022-09-13T17:39:36;3.00;;;1.30;;
25531;SDS011;13429;48.816;9.118;2022-09-13T17:42:03;4.00;;;1.55;;
25531;SDS011;13429;48.816;9.118;2022-09-13T17:44:29;1.88;;;1.23;;
25531;SDS011;13429;48.816;9.118;2022-09-13T17:46:55;3.42;;;1.40;;
25531;SDS011;13429;48.816;9.118;2022-09-13T17:49:21;3.90;;;1.40;;
25531;SDS011;13429;48.816;9.118;2022-09-13T17:51:47;3.15;;;1.30;;
25531;SDS011;13429;48.816;9.118;2022-09-13T17:54:13;3.72;;;1.55;;
25531;SDS011;13429;48.816;9.118;2022-09-13T17:56:40;3.33;;;1.45;;
25531;SDS011;13429;48.816;9.118;2022-09-13T18:01:40;5.03;;;1.85;;
25531;SDS011;13429;48.816;9.118;2022-09-13T18:04:07;3.95;;;1.85;;
25531;SDS011;13429;48.816;9.118;2022-09-13T18:06:34;3.05;;;1.40;;
25531;SDS011;13429;48.816;9.118;2022-09-13T18:09:00;2.33;;;1.40;;
25531;SDS011;13429;48.816;9.118;2022-09-13T18:11:26;3.13;;;1.20;;
25531;SDS011;13429;48.816;9.118;2022-09-13T18:13:52;5.80;;;1.60;;